Tasman Sea — WDB5559 — position and weather

sailwx.info

Track history (hours):
 
Tides and Currents Weather Stations Pressure Air Temp Water Temp Dewpoint Dewpoint Depression Visibility Wind Speed Wind Dir Waves Ship Positions

Tasman Sea

Owner: Kirby Offshore Marine, LLC, Staten Island, NY. More information available from US FCC via Universal Licensing System and Coast Guard Vessel Documentation Center.

Last reported at 2018-Feb-20 00:59 UTC. Time now 2018-Feb-20 01:28 UTC.
Position N 40°40' W 074°02'.

Length 134 m; draft 6.4 m.

Type: Tug. MMSI: 366910960.

Date/timePositionNaut miles runAvg speedWind from/ knotsBaromVisibWave heightAir tempDewpointWater temp
2018-Feb-20 00:59N 40°40' W 074°02'0 0.1
2018-Feb-20 00:28N 40°40' W 074°02'0 0.0
2018-Feb-19 23:59N 40°40' W 074°02'0 0.0
2018-Feb-19 23:29N 40°40' W 074°02'0 0.0
2018-Feb-19 22:58N 40°40' W 074°02'1 1.7
2018-Feb-19 22:30N 40°39' W 074°03'2 3.6
2018-Feb-19 22:00N 40°39' W 074°05'4 7.2
2018-Feb-19 21:30N 40°38' W 074°10'0 0.0
2018-Feb-19 20:59N 40°38' W 074°10'0 0.0
2018-Feb-19 20:26N 40°38' W 074°10'0 0.0
2018-Feb-19 19:59N 40°38' W 074°10'0 0.0
2018-Feb-19 19:29N 40°38' W 074°10'0 0.0
2018-Feb-19 18:59N 40°38' W 074°10'0 0.0
2018-Feb-19 18:29N 40°38' W 074°10'0 0.0
2018-Feb-19 17:56N 40°38' W 074°10'0 0.0
2018-Feb-19 17:29N 40°38' W 074°10'0 0.0
2018-Feb-19 16:59N 40°38' W 074°10'0 0.0
2018-Feb-19 16:29N 40°38' W 074°10'0 0.0
2018-Feb-19 15:59N 40°38' W 074°10'0 0.0
2018-Feb-19 15:29N 40°38' W 074°10'0 0.0
2018-Feb-19 14:59N 40°38' W 074°10'0 0.0
2018-Feb-19 14:17N 40°38' W 074°10'0 0.0
2018-Feb-19 13:59N 40°38' W 074°10'0 0.0
2018-Feb-19 13:26N 40°38' W 074°10'0 0.0
2018-Feb-19 12:59N 40°38' W 074°10'0 0.0
2018-Feb-19 12:29N 40°38' W 074°10'0 0.0
2018-Feb-19 12:00N 40°38' W 074°10'3 6.4
2018-Feb-19 11:30N 40°39' W 074°06'3 5.2
2018-Feb-19 10:59N 40°40' W 074°02'0 0.0
2018-Feb-19 10:26N 40°40' W 074°02'0 0.1
2018-Feb-19 09:59N 40°40' W 074°02'0 0.0
2018-Feb-19 09:29N 40°40' W 074°02'0 0.0
2018-Feb-19 08:59N 40°40' W 074°02'0 0.0
2018-Feb-19 08:29N 40°40' W 074°02'0 0.1
2018-Feb-19 07:59N 40°40' W 074°02'0 0.1
2018-Feb-19 07:26N 40°40' W 074°02'0 0.1
2018-Feb-19 06:59N 40°40' W 074°02'0 0.0
2018-Feb-19 06:29N 40°40' W 074°02'0 0.0
2018-Feb-19 05:59N 40°40' W 074°02'0 0.2
2018-Feb-19 05:29N 40°40' W 074°02'0 0.2
2018-Feb-19 04:59N 40°40' W 074°02'0 0.1
2018-Feb-19 04:29N 40°40' W 074°02'0 0.0
2018-Feb-19 03:59N 40°40' W 074°02'0 0.0
2018-Feb-19 03:29N 40°40' W 074°02'0 0.0
2018-Feb-19 02:59N 40°40' W 074°02'0 0.0
2018-Feb-19 02:29N 40°40' W 074°02'0 0.0
2018-Feb-19 01:59N 40°40' W 074°02'0 0.0
2018-Feb-19 01:29N 40°40' W 074°02'0 0.0
2018-Feb-19 00:59N 40°40' W 074°02'0 0.3
2018-Feb-19 00:26N 40°40' W 074°02'0 0.1
2018-Feb-18 23:59N 40°40' W 074°02'0 0.1
2018-Feb-18 23:29N 40°40' W 074°02'0 0.0
2018-Feb-18 22:59N 40°40' W 074°02'0 0.0
2018-Feb-18 22:29N 40°40' W 074°02'0 0.0
2018-Feb-18 21:59N 40°40' W 074°02'0 0.0
2018-Feb-18 21:29N 40°40' W 074°02'0 0.0
2018-Feb-18 20:59N 40°40' W 074°02'0 0.0
2018-Feb-18 20:29N 40°40' W 074°02'0 0.0
2018-Feb-18 19:59N 40°40' W 074°02'0 0.0
2018-Feb-18 19:29N 40°40' W 074°02'0 0.0
2018-Feb-18 18:59N 40°40' W 074°02'0 0.0
2018-Feb-18 18:29N 40°40' W 074°02'0 0.1
2018-Feb-18 17:59N 40°40' W 074°02'0 0.0
2018-Feb-18 17:29N 40°40' W 074°02'0 0.1
2018-Feb-18 16:59N 40°40' W 074°02'0 0.1
2018-Feb-18 16:29N 40°40' W 074°02'0 0.0
2018-Feb-18 15:59N 40°40' W 074°02'0 0.1
2018-Feb-18 15:30N 40°40' W 074°02'0 0.3
2018-Feb-18 14:59N 40°40' W 074°02'0 0.8
2018-Feb-18 14:30N 40°40' W 074°02'1 2.5
2018-Feb-18 14:00N 40°41' W 074°02'5 9.0
2018-Feb-18 13:30N 40°45' W 074°01'3 6.7
2018-Feb-18 13:00N 40°48' W 073°59'0 0.1
2018-Feb-18 12:28N 40°48' W 073°59'0 0.0
2018-Feb-18 11:58N 40°48' W 073°59'0 0.0
2018-Feb-18 11:28N 40°48' W 073°59'0 0.0
2018-Feb-18 10:58N 40°48' W 073°59'0 0.0
2018-Feb-18 10:28N 40°48' W 073°59'0 0.0
2018-Feb-18 09:58N 40°48' W 073°59'0 0.0
2018-Feb-18 09:28N 40°48' W 073°59'0 0.0
2018-Feb-18 08:58N 40°48' W 073°59'0 0.0
2018-Feb-18 08:28N 40°48' W 073°59'0 0.0
2018-Feb-18 07:58N 40°48' W 073°59'0 0.0
2018-Feb-18 07:28N 40°48' W 073°59'0 0.0
2018-Feb-18 06:58N 40°48' W 073°59'0 0.0
2018-Feb-18 06:28N 40°48' W 073°59'0 0.2
2018-Feb-18 05:58N 40°48' W 073°59'0 0.3
2018-Feb-18 05:28N 40°48' W 073°59'0 0.1
2018-Feb-18 04:58N 40°48' W 073°59'0 0.0
2018-Feb-18 04:28N 40°48' W 073°59'0 0.0
2018-Feb-18 03:58N 40°48' W 073°59'0 0.0
2018-Feb-18 03:28N 40°48' W 073°59'0 0.0
2018-Feb-18 02:58N 40°48' W 073°59'0 0.0
2018-Feb-18 02:28N 40°48' W 073°59'0 0.0
2018-Feb-18 01:58N 40°48' W 073°59'0 0.0
2018-Feb-18 01:28N 40°48' W 073°59'0 0.0
2018-Feb-18 00:58N 40°48' W 073°59'0 0.1
2018-Feb-18 00:28N 40°48' W 073°59'0 0.3
2018-Feb-17 23:58N 40°48' W 073°59'0 0.1
2018-Feb-17 23:28N 40°48' W 073°59'0 0.0
2018-Feb-17 22:58N 40°48' W 073°59'0 0.0
2018-Feb-17 22:28N 40°48' W 073°59'0 0.0
2018-Feb-17 22:00N 40°48' W 073°59'0 0.0
2018-Feb-17 21:30N 40°48' W 073°59'0 0.0
2018-Feb-17 21:00N 40°48' W 073°59'0 0.0
2018-Feb-17 20:29N 40°48' W 073°59'0 0.0
2018-Feb-17 20:00N 40°48' W 073°59'0 0.0
2018-Feb-17 19:30N 40°48' W 073°59'0 0.0
2018-Feb-17 19:00N 40°48' W 073°59'0 0.1
2018-Feb-17 18:30N 40°48' W 073°59'0 0.3
2018-Feb-17 18:00N 40°48' W 073°59'0 0.1
2018-Feb-17 17:30N 40°48' W 073°59'0 0.0
2018-Feb-17 17:01N 40°48' W 073°59'0 0.0
2018-Feb-17 16:30N 40°48' W 073°59'0 0.0
2018-Feb-17 16:01N 40°48' W 073°59'0 0.0
2018-Feb-17 15:30N 40°48' W 073°59'0 0.0
2018-Feb-17 15:01N 40°48' W 073°59'0 0.0
2018-Feb-17 14:29N 40°48' W 073°59'0 0.0
2018-Feb-17 14:01N 40°48' W 073°59'0 0.0
2018-Feb-17 13:29N 40°48' W 073°59'0 0.0
2018-Feb-17 13:00N 40°48' W 073°59'0 0.0
2018-Feb-17 12:31N 40°48' W 073°59'0 0.2
2018-Feb-17 12:00N 40°48' W 073°59'0 0.2
2018-Feb-17 11:31N 40°48' W 073°59'0 0.1
2018-Feb-17 11:00N 40°48' W 073°59'0 0.0
2018-Feb-17 10:31N 40°48' W 073°59'0 0.0
2018-Feb-17 10:00N 40°48' W 073°59'0 0.0
2018-Feb-17 09:30N 40°48' W 073°59'0 0.0
2018-Feb-17 09:00N 40°48' W 073°59'0 0.0
2018-Feb-17 08:30N 40°48' W 073°59'0 0.0
2018-Feb-17 08:01N 40°48' W 073°59'0 0.0
2018-Feb-17 07:30N 40°48' W 073°59'0 0.0
2018-Feb-17 07:01N 40°48' W 073°59'0 0.0
2018-Feb-17 06:31N 40°48' W 073°59'0 0.0
2018-Feb-17 06:00N 40°48' W 073°59'0 0.0
2018-Feb-17 05:30N 40°48' W 073°59'0 0.0
2018-Feb-17 05:00N 40°48' W 073°59'0 0.0
2018-Feb-17 04:30N 40°48' W 073°59'0 0.1
2018-Feb-17 04:00N 40°48' W 073°59'0 0.1
2018-Feb-17 03:30N 40°48' W 073°59'0 0.1
2018-Feb-17 03:00N 40°48' W 073°59'0 0.1
2018-Feb-17 02:29N 40°48' W 073°59'0 0.1
2018-Feb-17 02:00N 40°48' W 073°59'0 0.1
2018-Feb-17 01:30N 40°48' W 073°59'0 0.1
2018-Feb-17 01:00N 40°48' W 073°59'1 1.5
2018-Feb-17 00:30N 40°47' W 073°59'4 8.2
2018-Feb-17 00:01N 40°44' W 074°01'4 7.9
2018-Feb-16 23:30N 40°40' W 074°02'0 0.3
2018-Feb-16 23:00N 40°40' W 074°02'0 0.0
2018-Feb-16 22:30N 40°40' W 074°02'0 0.1
2018-Feb-16 22:00N 40°40' W 074°02'0 0.1
2018-Feb-16 21:30N 40°40' W 074°02'0 0.7
2018-Feb-16 21:00N 40°40' W 074°02'1 1.4
2018-Feb-16 20:30N 40°39' W 074°03'4 8.6
2018-Feb-16 20:00N 40°38' W 074°09'1 1.7
2018-Feb-16 19:28N 40°38' W 074°10'0 0.0
2018-Feb-16 18:58N 40°38' W 074°10'0 0.0
2018-Feb-16 18:28N 40°38' W 074°10'0 0.0
2018-Feb-16 17:58N 40°38' W 074°10'0 0.0
2018-Feb-16 17:19N 40°38' W 074°10'0 0.0
2018-Feb-16 16:58N 40°38' W 074°10'0 0.0
2018-Feb-16 16:25N 40°38' W 074°10'0 0.0
2018-Feb-16 15:58N 40°38' W 074°10'0 0.0
2018-Feb-16 15:28N 40°38' W 074°10'0 0.0
2018-Feb-16 14:58N 40°38' W 074°10'0 0.0
2018-Feb-16 14:28N 40°38' W 074°10'0 0.0
2018-Feb-16 13:58N 40°38' W 074°10'0 0.0
2018-Feb-16 13:25N 40°38' W 074°10'0 0.0
2018-Feb-16 12:58N 40°38' W 074°10'0 0.0
2018-Feb-16 12:25N 40°38' W 074°10'1 2.0
2018-Feb-16 12:00N 40°39' W 074°09'5 9.3
2018-Feb-16 11:31N 40°39' W 074°03'0 0.1
2018-Feb-16 11:00N 40°39' W 074°03'0 0.2
2018-Feb-16 10:30N 40°39' W 074°03'0 0.1
2018-Feb-16 10:00N 40°39' W 074°03'0 0.0
2018-Feb-16 09:30N 40°39' W 074°03'0 0.0
2018-Feb-16 09:00N 40°39' W 074°03'0 0.0
2018-Feb-16 08:30N 40°39' W 074°03'0 0.0
2018-Feb-16 08:00N 40°39' W 074°03'0 0.0
2018-Feb-16 07:30N 40°39' W 074°03'0 0.0
2018-Feb-16 07:00N 40°39' W 074°03'0 0.0
2018-Feb-16 06:31N 40°39' W 074°03'0 0.0
2018-Feb-16 06:00N 40°39' W 074°03'0 0.0
2018-Feb-16 05:30N 40°39' W 074°03'0 0.0
2018-Feb-16 05:00N 40°39' W 074°03'0 0.0
2018-Feb-16 04:30N 40°39' W 074°03'0 0.1
2018-Feb-16 04:00N 40°39' W 074°03'0 0.1
2018-Feb-16 03:30N 40°39' W 074°03'0 0.2
2018-Feb-16 03:00N 40°39' W 074°03'0 0.2
2018-Feb-16 02:30N 40°39' W 074°03'0 0.0
2018-Feb-16 02:00N 40°39' W 074°03'0 0.0
2018-Feb-16 01:30N 40°39' W 074°03'0 0.1
2018-Feb-16 01:00N 40°39' W 074°03'0 0.1
2018-Feb-16 00:30N 40°39' W 074°03'0 0.0
2018-Feb-16 00:00N 40°39' W 074°03'0 0.2
2018-Feb-15 23:30N 40°39' W 074°03'1 2.7
2018-Feb-15 23:00N 40°40' W 074°04'0 0.1
2018-Feb-15 22:30N 40°40' W 074°04'1 2.0
2018-Feb-15 22:00N 40°39' W 074°04'3 5.0
2018-Feb-15 21:30N 40°39' W 074°07'2 4.5
2018-Feb-15 21:00N 40°39' W 074°10'0 0.1
2018-Feb-15 20:30N 40°39' W 074°10'0 0.0
2018-Feb-15 20:00N 40°38' W 074°10'0 0.0
2018-Feb-15 19:30N 40°39' W 074°10'0 0.0
2018-Feb-15 19:00N 40°38' W 074°10'0 0.0
2018-Feb-15 18:30N 40°38' W 074°10'0 0.0
2018-Feb-15 18:00N 40°38' W 074°10'0 0.0
2018-Feb-15 17:30N 40°38' W 074°10'0 0.0
2018-Feb-15 17:00N 40°38' W 074°10'0 0.0
2018-Feb-15 16:30N 40°38' W 074°10'0 0.0
2018-Feb-15 16:00N 40°38' W 074°10'0 0.0
2018-Feb-15 15:27N 40°38' W 074°10'0 0.0
2018-Feb-15 15:00N 40°38' W 074°10'0 0.0
2018-Feb-15 14:30N 40°38' W 074°10'0 0.0
2018-Feb-15 14:00N 40°38' W 074°10'0 0.0
2018-Feb-15 13:30N 40°38' W 074°10'0 0.0
2018-Feb-15 13:00N 40°38' W 074°10'0 0.0
2018-Feb-15 12:30N 40°38' W 074°10'0 0.0
2018-Feb-15 12:00N 40°38' W 074°10'0 0.1
2018-Feb-15 11:30N 40°39' W 074°10'4 8.3
2018-Feb-15 11:00N 40°39' W 074°04'1 2.1
2018-Feb-15 10:30N 40°39' W 074°03'0 0.0
2018-Feb-15 10:00N 40°39' W 074°03'0 0.1
2018-Feb-15 09:30N 40°39' W 074°03'0 0.0
2018-Feb-15 09:00N 40°39' W 074°03'0 0.0
2018-Feb-15 08:30N 40°39' W 074°03'0 0.0
2018-Feb-15 08:00N 40°39' W 074°03'0 0.0
2018-Feb-15 07:30N 40°39' W 074°03'0 0.0
2018-Feb-15 07:00N 40°39' W 074°03'0 0.0
2018-Feb-15 06:30N 40°39' W 074°03'0 0.0
2018-Feb-15 06:00N 40°39' W 074°03'0 0.0
2018-Feb-15 05:30N 40°39' W 074°03'0 0.0
2018-Feb-15 05:00N 40°39' W 074°03'0 0.0
2018-Feb-15 04:30N 40°39' W 074°03'0 0.0
2018-Feb-15 04:00N 40°39' W 074°03'0 0.0
2018-Feb-15 03:30N 40°39' W 074°03'0 0.1
2018-Feb-15 03:00N 40°39' W 074°03'3 5.7
2018-Feb-15 02:30N 40°39' W 074°07'0 0.1
2018-Feb-15 02:00N 40°39' W 074°07'0 0.0
2018-Feb-15 01:30N 40°39' W 074°07'0 0.0
2018-Feb-15 00:54N 40°39' W 074°07'0 0.0
2018-Feb-15 00:24N 40°39' W 074°07'0 0.0
2018-Feb-15 00:00N 40°39' W 074°07'3 6.0
2018-Feb-14 23:31N 40°39' W 074°03'0 0.3
2018-Feb-14 23:00N 40°39' W 074°03'3 6.8
2018-Feb-14 22:29N 40°36' W 074°02'5 9.3
2018-Feb-14 22:00N 40°32' W 074°01'5 9.9
2018-Feb-14 21:29N 40°29' W 073°55'4 8.8
2018-Feb-14 20:59N 40°29' W 073°49'4 8.2
2018-Feb-14 20:30N 40°29' W 073°44'178 6.3
2018-Feb-13 16:26N 42°13' W 070°31'4 8.3
2018-Feb-13 16:00N 42°17' W 070°31'4 8.4
2018-Feb-13 15:30N 42°21' W 070°31'5 9.0
2018-Feb-13 15:00N 42°25' W 070°30'5 9.3
2018-Feb-13 14:30N 42°30' W 070°30'5 9.6
2018-Feb-13 14:00N 42°35' W 070°30'5 9.3
2018-Feb-13 13:30N 42°39' W 070°30'5 9.3
2018-Feb-13 13:01N 42°44' W 070°33'5 9.3
2018-Feb-13 12:31N 42°48' W 070°36'5 9.2
2018-Feb-13 12:01N 42°52' W 070°38'5 9.3
2018-Feb-13 11:31N 42°56' W 070°40'9 0.3
2018-Feb-12 09:05N 43°05' W 070°44'2 4.1
2018-Feb-12 08:41N 43°04' W 070°42'1 3.7
2018-Feb-12 08:30N 43°04' W 070°42'2 4.4
2018-Feb-12 08:00N 43°02' W 070°41'1 1.3
2018-Feb-12 07:30N 43°01' W 070°42'0 0.0
2018-Feb-12 04:57N 43°01' W 070°42'0 0.0
2018-Feb-11 09:43N 43°01' W 070°42'0 0.2
2018-Feb-11 09:30N 43°01' W 070°41'2 4.2
2018-Feb-11 09:00N 42°59' W 070°41'4 7.0
2018-Feb-11 08:30N 42°56' W 070°40'3 6.9
2018-Feb-11 08:00N 42°52' W 070°38'3 6.8
2018-Feb-11 07:30N 42°49' W 070°36'3 6.8
2018-Feb-11 07:00N 42°46' W 070°34'3 6.9
2018-Feb-11 06:30N 42°43' W 070°32'3 6.9
2018-Feb-11 06:00N 42°40' W 070°30'3 6.9
2018-Feb-11 05:30N 42°36' W 070°30'4 7.1
2018-Feb-11 05:00N 42°33' W 070°30'4 7.2
2018-Feb-11 04:30N 42°29' W 070°30'4 7.3
2018-Feb-11 04:00N 42°26' W 070°30'4 7.2
2018-Feb-11 03:30N 42°22' W 070°31'4 7.1
2018-Feb-11 03:00N 42°18' W 070°31'4 7.1
2018-Feb-11 02:30N 42°15' W 070°31'4 7.2
2018-Feb-11 02:00N 42°11' W 070°31'4 7.1
2018-Feb-11 01:30N 42°08' W 070°30'  
Track history (hours):
 
Tides and Currents Weather Stations Pressure Air Temp Water Temp Dewpoint Dewpoint Depression Visibility Wind Speed Wind Dir Waves Ship Positions

Tasman Sea

Owner: Kirby Offshore Marine, LLC, Staten Island, NY. More information available from US FCC via Universal Licensing System and Coast Guard Vessel Documentation Center.

Last reported at 2018-Feb-20 00:59 UTC. Time now 2018-Feb-20 01:28 UTC.
Position N 40°40' W 074°02'.

Length 134 m; draft 6.4 m.

Type: Tug. MMSI: 366910960.

Date/timePositionNaut miles runAvg speedWind from/ knotsBaromVisibWave heightAir tempDewpointWater temp
2018-Feb-20 00:59N 40°40' W 074°02'0 0.1
2018-Feb-20 00:28N 40°40' W 074°02'0 0.0
2018-Feb-19 23:59N 40°40' W 074°02'0 0.0
2018-Feb-19 23:29N 40°40' W 074°02'0 0.0
2018-Feb-19 22:58N 40°40' W 074°02'1 1.7
2018-Feb-19 22:30N 40°39' W 074°03'2 3.6
2018-Feb-19 22:00N 40°39' W 074°05'4 7.2
2018-Feb-19 21:30N 40°38' W 074°10'0 0.0
2018-Feb-19 20:59N 40°38' W 074°10'0 0.0
2018-Feb-19 20:26N 40°38' W 074°10'0 0.0
2018-Feb-19 19:59N 40°38' W 074°10'0 0.0
2018-Feb-19 19:29N 40°38' W 074°10'0 0.0
2018-Feb-19 18:59N 40°38' W 074°10'0 0.0
2018-Feb-19 18:29N 40°38' W 074°10'0 0.0
2018-Feb-19 17:56N 40°38' W 074°10'0 0.0
2018-Feb-19 17:29N 40°38' W 074°10'0 0.0
2018-Feb-19 16:59N 40°38' W 074°10'0 0.0
2018-Feb-19 16:29N 40°38' W 074°10'0 0.0
2018-Feb-19 15:59N 40°38' W 074°10'0 0.0
2018-Feb-19 15:29N 40°38' W 074°10'0 0.0
2018-Feb-19 14:59N 40°38' W 074°10'0 0.0
2018-Feb-19 14:17N 40°38' W 074°10'0 0.0
2018-Feb-19 13:59N 40°38' W 074°10'0 0.0
2018-Feb-19 13:26N 40°38' W 074°10'0 0.0
2018-Feb-19 12:59N 40°38' W 074°10'0 0.0
2018-Feb-19 12:29N 40°38' W 074°10'0 0.0
2018-Feb-19 12:00N 40°38' W 074°10'3 6.4
2018-Feb-19 11:30N 40°39' W 074°06'3 5.2
2018-Feb-19 10:59N 40°40' W 074°02'0 0.0
2018-Feb-19 10:26N 40°40' W 074°02'0 0.1
2018-Feb-19 09:59N 40°40' W 074°02'0 0.0
2018-Feb-19 09:29N 40°40' W 074°02'0 0.0
2018-Feb-19 08:59N 40°40' W 074°02'0 0.0
2018-Feb-19 08:29N 40°40' W 074°02'0 0.1
2018-Feb-19 07:59N 40°40' W 074°02'0 0.1
2018-Feb-19 07:26N 40°40' W 074°02'0 0.1
2018-Feb-19 06:59N 40°40' W 074°02'0 0.0
2018-Feb-19 06:29N 40°40' W 074°02'0 0.0
2018-Feb-19 05:59N 40°40' W 074°02'0 0.2
2018-Feb-19 05:29N 40°40' W 074°02'0 0.2
2018-Feb-19 04:59N 40°40' W 074°02'0 0.1
2018-Feb-19 04:29N 40°40' W 074°02'0 0.0
2018-Feb-19 03:59N 40°40' W 074°02'0 0.0
2018-Feb-19 03:29N 40°40' W 074°02'0 0.0
2018-Feb-19 02:59N 40°40' W 074°02'0 0.0
2018-Feb-19 02:29N 40°40' W 074°02'0 0.0
2018-Feb-19 01:59N 40°40' W 074°02'0 0.0
2018-Feb-19 01:29N 40°40' W 074°02'0 0.0
2018-Feb-19 00:59N 40°40' W 074°02'0 0.3
2018-Feb-19 00:26N 40°40' W 074°02'0 0.1
2018-Feb-18 23:59N 40°40' W 074°02'0 0.1
2018-Feb-18 23:29N 40°40' W 074°02'0 0.0
2018-Feb-18 22:59N 40°40' W 074°02'0 0.0
2018-Feb-18 22:29N 40°40' W 074°02'0 0.0
2018-Feb-18 21:59N 40°40' W 074°02'0 0.0
2018-Feb-18 21:29N 40°40' W 074°02'0 0.0
2018-Feb-18 20:59N 40°40' W 074°02'0 0.0
2018-Feb-18 20:29N 40°40' W 074°02'0 0.0
2018-Feb-18 19:59N 40°40' W 074°02'0 0.0
2018-Feb-18 19:29N 40°40' W 074°02'0 0.0
2018-Feb-18 18:59N 40°40' W 074°02'0 0.0
2018-Feb-18 18:29N 40°40' W 074°02'0 0.1
2018-Feb-18 17:59N 40°40' W 074°02'0 0.0
2018-Feb-18 17:29N 40°40' W 074°02'0 0.1
2018-Feb-18 16:59N 40°40' W 074°02'0 0.1
2018-Feb-18 16:29N 40°40' W 074°02'0 0.0
2018-Feb-18 15:59N 40°40' W 074°02'0 0.1
2018-Feb-18 15:30N 40°40' W 074°02'0 0.3
2018-Feb-18 14:59N 40°40' W 074°02'0 0.8
2018-Feb-18 14:30N 40°40' W 074°02'1 2.5
2018-Feb-18 14:00N 40°41' W 074°02'5 9.0
2018-Feb-18 13:30N 40°45' W 074°01'3 6.7
2018-Feb-18 13:00N 40°48' W 073°59'0 0.1
2018-Feb-18 12:28N 40°48' W 073°59'0 0.0
2018-Feb-18 11:58N 40°48' W 073°59'0 0.0
2018-Feb-18 11:28N 40°48' W 073°59'0 0.0
2018-Feb-18 10:58N 40°48' W 073°59'0 0.0
2018-Feb-18 10:28N 40°48' W 073°59'0 0.0
2018-Feb-18 09:58N 40°48' W 073°59'0 0.0
2018-Feb-18 09:28N 40°48' W 073°59'0 0.0
2018-Feb-18 08:58N 40°48' W 073°59'0 0.0
2018-Feb-18 08:28N 40°48' W 073°59'0 0.0
2018-Feb-18 07:58N 40°48' W 073°59'0 0.0
2018-Feb-18 07:28N 40°48' W 073°59'0 0.0
2018-Feb-18 06:58N 40°48' W 073°59'0 0.0
2018-Feb-18 06:28N 40°48' W 073°59'0 0.2
2018-Feb-18 05:58N 40°48' W 073°59'0 0.3
2018-Feb-18 05:28N 40°48' W 073°59'0 0.1
2018-Feb-18 04:58N 40°48' W 073°59'0 0.0
2018-Feb-18 04:28N 40°48' W 073°59'0 0.0
2018-Feb-18 03:58N 40°48' W 073°59'0 0.0
2018-Feb-18 03:28N 40°48' W 073°59'0 0.0
2018-Feb-18 02:58N 40°48' W 073°59'0 0.0
2018-Feb-18 02:28N 40°48' W 073°59'0 0.0
2018-Feb-18 01:58N 40°48' W 073°59'0 0.0
2018-Feb-18 01:28N 40°48' W 073°59'0 0.0
2018-Feb-18 00:58N 40°48' W 073°59'0 0.1
2018-Feb-18 00:28N 40°48' W 073°59'0 0.3
2018-Feb-17 23:58N 40°48' W 073°59'0 0.1
2018-Feb-17 23:28N 40°48' W 073°59'0 0.0
2018-Feb-17 22:58N 40°48' W 073°59'0 0.0
2018-Feb-17 22:28N 40°48' W 073°59'0 0.0
2018-Feb-17 22:00N 40°48' W 073°59'0 0.0
2018-Feb-17 21:30N 40°48' W 073°59'0 0.0
2018-Feb-17 21:00N 40°48' W 073°59'0 0.0
2018-Feb-17 20:29N 40°48' W 073°59'0 0.0
2018-Feb-17 20:00N 40°48' W 073°59'0 0.0
2018-Feb-17 19:30N 40°48' W 073°59'0 0.0
2018-Feb-17 19:00N 40°48' W 073°59'0 0.1
2018-Feb-17 18:30N 40°48' W 073°59'0 0.3
2018-Feb-17 18:00N 40°48' W 073°59'0 0.1
2018-Feb-17 17:30N 40°48' W 073°59'0 0.0
2018-Feb-17 17:01N 40°48' W 073°59'0 0.0
2018-Feb-17 16:30N 40°48' W 073°59'0 0.0
2018-Feb-17 16:01N 40°48' W 073°59'0 0.0
2018-Feb-17 15:30N 40°48' W 073°59'0 0.0
2018-Feb-17 15:01N 40°48' W 073°59'0 0.0
2018-Feb-17 14:29N 40°48' W 073°59'0 0.0
2018-Feb-17 14:01N 40°48' W 073°59'0 0.0
2018-Feb-17 13:29N 40°48' W 073°59'0 0.0
2018-Feb-17 13:00N 40°48' W 073°59'0 0.0
2018-Feb-17 12:31N 40°48' W 073°59'0 0.2
2018-Feb-17 12:00N 40°48' W 073°59'0 0.2
2018-Feb-17 11:31N 40°48' W 073°59'0 0.1
2018-Feb-17 11:00N 40°48' W 073°59'0 0.0
2018-Feb-17 10:31N 40°48' W 073°59'0 0.0
2018-Feb-17 10:00N 40°48' W 073°59'0 0.0
2018-Feb-17 09:30N 40°48' W 073°59'0 0.0
2018-Feb-17 09:00N 40°48' W 073°59'0 0.0
2018-Feb-17 08:30N 40°48' W 073°59'0 0.0
2018-Feb-17 08:01N 40°48' W 073°59'0 0.0
2018-Feb-17 07:30N 40°48' W 073°59'0 0.0
2018-Feb-17 07:01N 40°48' W 073°59'0 0.0
2018-Feb-17 06:31N 40°48' W 073°59'0 0.0
2018-Feb-17 06:00N 40°48' W 073°59'0 0.0
2018-Feb-17 05:30N 40°48' W 073°59'0 0.0
2018-Feb-17 05:00N 40°48' W 073°59'0 0.0
2018-Feb-17 04:30N 40°48' W 073°59'0 0.1
2018-Feb-17 04:00N 40°48' W 073°59'0 0.1
2018-Feb-17 03:30N 40°48' W 073°59'0 0.1
2018-Feb-17 03:00N 40°48' W 073°59'0 0.1
2018-Feb-17 02:29N 40°48' W 073°59'0 0.1
2018-Feb-17 02:00N 40°48' W 073°59'0 0.1
2018-Feb-17 01:30N 40°48' W 073°59'0 0.1
2018-Feb-17 01:00N 40°48' W 073°59'1 1.5
2018-Feb-17 00:30N 40°47' W 073°59'4 8.2
2018-Feb-17 00:01N 40°44' W 074°01'4 7.9
2018-Feb-16 23:30N 40°40' W 074°02'0 0.3
2018-Feb-16 23:00N 40°40' W 074°02'0 0.0
2018-Feb-16 22:30N 40°40' W 074°02'0 0.1
2018-Feb-16 22:00N 40°40' W 074°02'0 0.1
2018-Feb-16 21:30N 40°40' W 074°02'0 0.7
2018-Feb-16 21:00N 40°40' W 074°02'1 1.4
2018-Feb-16 20:30N 40°39' W 074°03'4 8.6
2018-Feb-16 20:00N 40°38' W 074°09'1 1.7
2018-Feb-16 19:28N 40°38' W 074°10'0 0.0
2018-Feb-16 18:58N 40°38' W 074°10'0 0.0
2018-Feb-16 18:28N 40°38' W 074°10'0 0.0
2018-Feb-16 17:58N 40°38' W 074°10'0 0.0
2018-Feb-16 17:19N 40°38' W 074°10'0 0.0
2018-Feb-16 16:58N 40°38' W 074°10'0 0.0
2018-Feb-16 16:25N 40°38' W 074°10'0 0.0
2018-Feb-16 15:58N 40°38' W 074°10'0 0.0
2018-Feb-16 15:28N 40°38' W 074°10'0 0.0
2018-Feb-16 14:58N 40°38' W 074°10'0 0.0
2018-Feb-16 14:28N 40°38' W 074°10'0 0.0
2018-Feb-16 13:58N 40°38' W 074°10'0 0.0
2018-Feb-16 13:25N 40°38' W 074°10'0 0.0
2018-Feb-16 12:58N 40°38' W 074°10'0 0.0
2018-Feb-16 12:25N 40°38' W 074°10'1 2.0
2018-Feb-16 12:00N 40°39' W 074°09'5 9.3
2018-Feb-16 11:31N 40°39' W 074°03'0 0.1
2018-Feb-16 11:00N 40°39' W 074°03'0 0.2
2018-Feb-16 10:30N 40°39' W 074°03'0 0.1
2018-Feb-16 10:00N 40°39' W 074°03'0 0.0
2018-Feb-16 09:30N 40°39' W 074°03'0 0.0
2018-Feb-16 09:00N 40°39' W 074°03'0 0.0
2018-Feb-16 08:30N 40°39' W 074°03'0 0.0
2018-Feb-16 08:00N 40°39' W 074°03'0 0.0
2018-Feb-16 07:30N 40°39' W 074°03'0 0.0
2018-Feb-16 07:00N 40°39' W 074°03'0 0.0
2018-Feb-16 06:31N 40°39' W 074°03'0 0.0
2018-Feb-16 06:00N 40°39' W 074°03'0 0.0
2018-Feb-16 05:30N 40°39' W 074°03'0 0.0
2018-Feb-16 05:00N 40°39' W 074°03'0 0.0
2018-Feb-16 04:30N 40°39' W 074°03'0 0.1
2018-Feb-16 04:00N 40°39' W 074°03'0 0.1
2018-Feb-16 03:30N 40°39' W 074°03'0 0.2
2018-Feb-16 03:00N 40°39' W 074°03'0 0.2
2018-Feb-16 02:30N 40°39' W 074°03'0 0.0
2018-Feb-16 02:00N 40°39' W 074°03'0 0.0
2018-Feb-16 01:30N 40°39' W 074°03'0 0.1
2018-Feb-16 01:00N 40°39' W 074°03'0 0.1
2018-Feb-16 00:30N 40°39' W 074°03'0 0.0
2018-Feb-16 00:00N 40°39' W 074°03'0 0.2
2018-Feb-15 23:30N 40°39' W 074°03'1 2.7
2018-Feb-15 23:00N 40°40' W 074°04'0 0.1
2018-Feb-15 22:30N 40°40' W 074°04'1 2.0
2018-Feb-15 22:00N 40°39' W 074°04'3 5.0
2018-Feb-15 21:30N 40°39' W 074°07'2 4.5
2018-Feb-15 21:00N 40°39' W 074°10'0 0.1
2018-Feb-15 20:30N 40°39' W 074°10'0 0.0
2018-Feb-15 20:00N 40°38' W 074°10'0 0.0
2018-Feb-15 19:30N 40°39' W 074°10'0 0.0
2018-Feb-15 19:00N 40°38' W 074°10'0 0.0
2018-Feb-15 18:30N 40°38' W 074°10'0 0.0
2018-Feb-15 18:00N 40°38' W 074°10'0 0.0
2018-Feb-15 17:30N 40°38' W 074°10'0 0.0
2018-Feb-15 17:00N 40°38' W 074°10'0 0.0
2018-Feb-15 16:30N 40°38' W 074°10'0 0.0
2018-Feb-15 16:00N 40°38' W 074°10'0 0.0
2018-Feb-15 15:27N 40°38' W 074°10'0 0.0
2018-Feb-15 15:00N 40°38' W 074°10'0 0.0
2018-Feb-15 14:30N 40°38' W 074°10'0 0.0
2018-Feb-15 14:00N 40°38' W 074°10'0 0.0
2018-Feb-15 13:30N 40°38' W 074°10'0 0.0
2018-Feb-15 13:00N 40°38' W 074°10'0 0.0
2018-Feb-15 12:30N 40°38' W 074°10'0 0.0
2018-Feb-15 12:00N 40°38' W 074°10'0 0.1
2018-Feb-15 11:30N 40°39' W 074°10'4 8.3
2018-Feb-15 11:00N 40°39' W 074°04'1 2.1
2018-Feb-15 10:30N 40°39' W 074°03'0 0.0
2018-Feb-15 10:00N 40°39' W 074°03'0 0.1
2018-Feb-15 09:30N 40°39' W 074°03'0 0.0
2018-Feb-15 09:00N 40°39' W 074°03'0 0.0
2018-Feb-15 08:30N 40°39' W 074°03'0 0.0
2018-Feb-15 08:00N 40°39' W 074°03'0 0.0
2018-Feb-15 07:30N 40°39' W 074°03'0 0.0
2018-Feb-15 07:00N 40°39' W 074°03'0 0.0
2018-Feb-15 06:30N 40°39' W 074°03'0 0.0
2018-Feb-15 06:00N 40°39' W 074°03'0 0.0
2018-Feb-15 05:30N 40°39' W 074°03'0 0.0
2018-Feb-15 05:00N 40°39' W 074°03'0 0.0
2018-Feb-15 04:30N 40°39' W 074°03'0 0.0
2018-Feb-15 04:00N 40°39' W 074°03'0 0.0
2018-Feb-15 03:30N 40°39' W 074°03'0 0.1
2018-Feb-15 03:00N 40°39' W 074°03'3 5.7
2018-Feb-15 02:30N 40°39' W 074°07'0 0.1
2018-Feb-15 02:00N 40°39' W 074°07'0 0.0
2018-Feb-15 01:30N 40°39' W 074°07'0 0.0
2018-Feb-15 00:54N 40°39' W 074°07'0 0.0
2018-Feb-15 00:24N 40°39' W 074°07'0 0.0
2018-Feb-15 00:00N 40°39' W 074°07'3 6.0
2018-Feb-14 23:31N 40°39' W 074°03'0 0.3
2018-Feb-14 23:00N 40°39' W 074°03'3 6.8
2018-Feb-14 22:29N 40°36' W 074°02'5 9.3
2018-Feb-14 22:00N 40°32' W 074°01'5 9.9
2018-Feb-14 21:29N 40°29' W 073°55'4 8.8
2018-Feb-14 20:59N 40°29' W 073°49'4 8.2
2018-Feb-14 20:30N 40°29' W 073°44'178 6.3
2018-Feb-13 16:26N 42°13' W 070°31'4 8.3
2018-Feb-13 16:00N 42°17' W 070°31'4 8.4
2018-Feb-13 15:30N 42°21' W 070°31'5 9.0
2018-Feb-13 15:00N 42°25' W 070°30'5 9.3
2018-Feb-13 14:30N 42°30' W 070°30'5 9.6
2018-Feb-13 14:00N 42°35' W 070°30'5 9.3
2018-Feb-13 13:30N 42°39' W 070°30'5 9.3
2018-Feb-13 13:01N 42°44' W 070°33'5 9.3
2018-Feb-13 12:31N 42°48' W 070°36'5 9.2
2018-Feb-13 12:01N 42°52' W 070°38'5 9.3
2018-Feb-13 11:31N 42°56' W 070°40'9 0.3
2018-Feb-12 09:05N 43°05' W 070°44'2 4.1
2018-Feb-12 08:41N 43°04' W 070°42'1 3.7
2018-Feb-12 08:30N 43°04' W 070°42'2 4.4
2018-Feb-12 08:00N 43°02' W 070°41'1 1.3
2018-Feb-12 07:30N 43°01' W 070°42'0 0.0
2018-Feb-12 04:57N 43°01' W 070°42'0 0.0
2018-Feb-11 09:43N 43°01' W 070°42'0 0.2
2018-Feb-11 09:30N 43°01' W 070°41'2 4.2
2018-Feb-11 09:00N 42°59' W 070°41'4 7.0
2018-Feb-11 08:30N 42°56' W 070°40'3 6.9
2018-Feb-11 08:00N 42°52' W 070°38'3 6.8
2018-Feb-11 07:30N 42°49' W 070°36'3 6.8
2018-Feb-11 07:00N 42°46' W 070°34'3 6.9
2018-Feb-11 06:30N 42°43' W 070°32'3 6.9
2018-Feb-11 06:00N 42°40' W 070°30'3 6.9
2018-Feb-11 05:30N 42°36' W 070°30'4 7.1
2018-Feb-11 05:00N 42°33' W 070°30'4 7.2
2018-Feb-11 04:30N 42°29' W 070°30'4 7.3
2018-Feb-11 04:00N 42°26' W 070°30'4 7.2
2018-Feb-11 03:30N 42°22' W 070°31'4 7.1
2018-Feb-11 03:00N 42°18' W 070°31'4 7.1
2018-Feb-11 02:30N 42°15' W 070°31'4 7.2
2018-Feb-11 02:00N 42°11' W 070°31'4 7.1
2018-Feb-11 01:30N 42°08' W 070°30'  

Dump ship's entire track history